Time;durP1;ratioP1;P1;durP2;ratioP2;P2;SDS_P1;SDS_P2;PMS_P1;PMS_P2;Temp;Humidity;BMP_temperature;BMP_pressure;BME280_temperature;BME280_humidity;BME280_pressure;Samples;Min_cycle;Max_cycle;Signal;HPM_P1;HPM_P2
2023/01/07 00:01:23;;;;;;;3.08;2.88;;;;;;;;;;5093288;28;20210;-64
2023/01/07 00:03:52;;;;;;;3.45;3.25;;;;;;;;;;5092543;28;20206;-62
2023/01/07 00:06:22;;;;;;;4.18;3.78;;;;;;;;;;5075908;28;20200;-63
2023/01/07 00:08:52;;;;;;;4.15;3.15;;;;;;;;;;5073541;28;20184;-63
2023/01/07 00:11:20;;;;;;;4.25;3.03;;;;;;;;;;5073286;28;20280;-63
2023/01/07 00:13:49;;;;;;;3.63;3.40;;;;;;;;;;5072994;28;20211;-62
2023/01/07 00:16:21;;;;;;;5.28;3.28;;;;;;;;;;5073527;28;20203;-63
2023/01/07 00:18:50;;;;;;;2.72;2.53;;;;;;;;;;5072403;28;20210;-63
2023/01/07 00:21:19;;;;;;;3.58;2.70;;;;;;;;;;5073222;28;20218;-64
2023/01/07 00:23:49;;;;;;;3.42;2.88;;;;;;;;;;5072725;28;20219;-64
2023/01/07 00:26:18;;;;;;;5.30;3.00;;;;;;;;;;5073521;28;20203;-63
2023/01/07 00:28:48;;;;;;;3.60;3.15;;;;;;;;;;5073652;28;20187;-63
2023/01/07 00:31:17;;;;;;;3.58;3.28;;;;;;;;;;5084388;28;20208;-64
2023/01/07 00:33:50;;;;;;;4.93;3.85;;;;;;;;;;5079647;28;20205;-63
2023/01/07 00:36:19;;;;;;;4.05;3.67;;;;;;;;;;5092283;28;20604;-63
2023/01/07 00:38:47;;;;;;;8.02;3.00;;;;;;;;;;5092041;28;20214;-63
2023/01/07 00:41:16;;;;;;;3.15;2.90;;;;;;;;;;5081329;28;20195;-63
2023/01/07 00:43:45;;;;;;;3.13;2.92;;;;;;;;;;5089834;28;20207;-62
2023/01/07 00:46:14;;;;;;;3.83;3.60;;;;;;;;;;5089018;28;20228;-63
2023/01/07 00:48:43;;;;;;;3.58;3.28;;;;;;;;;;5079351;28;20857;-63
2023/01/07 00:51:13;;;;;;;2.78;2.60;;;;;;;;;;5090180;28;20554;-63
2023/01/07 00:53:41;;;;;;;4.15;3.25;;;;;;;;;;5072544;28;20214;-63
2023/01/07 00:56:10;;;;;;;3.80;3.50;;;;;;;;;;5078333;28;20206;-64
2023/01/07 00:58:39;;;;;;;4.55;3.53;;;;;;;;;;5092247;28;20235;-63
2023/01/07 01:01:08;;;;;;;2.83;2.63;;;;;;;;;;5081620;28;20670;-63
2023/01/07 01:03:36;;;;;;;3.08;2.90;;;;;;;;;;5075439;28;20202;-64
2023/01/07 01:06:05;;;;;;;5.07;4.03;;;;;;;;;;5082438;28;20198;-63
2023/01/07 01:08:33;;;;;;;4.18;3.75;;;;;;;;;;5092338;28;20223;-62
2023/01/07 01:11:03;;;;;;;5.00;3.30;;;;;;;;;;5074940;28;20233;-62
2023/01/07 01:13:32;;;;;;;3.25;3.05;;;;;;;;;;5072071;28;20711;-63
2023/01/07 01:16:02;;;;;;;3.45;3.15;;;;;;;;;;5076710;28;20188;-63
2023/01/07 01:18:30;;;;;;;4.03;3.63;;;;;;;;;;5090471;28;20553;-63
2023/01/07 01:21:03;;;;;;;3.80;3.50;;;;;;;;;;5087771;28;20187;-63
2023/01/07 01:23:31;;;;;;;3.42;3.22;;;;;;;;;;5070663;28;20220;-64
2023/01/07 01:26:03;;;;;;;4.25;3.95;;;;;;;;;;5072504;28;20249;-64
2023/01/07 01:28:31;;;;;;;3.67;3.38;;;;;;;;;;5071018;28;20212;-63
2023/01/07 01:30:59;;;;;;;3.63;3.30;;;;;;;;;;5072087;28;20196;-63
2023/01/07 01:33:33;;;;;;;4.38;3.35;;;;;;;;;;5079600;28;20207;-63
2023/01/07 01:36:04;;;;;;;3.88;3.55;;;;;;;;;;5092055;28;20397;-63
2023/01/07 01:38:32;;;;;;;5.63;3.20;;;;;;;;;;5091644;28;20187;-64
2023/01/07 01:41:00;;;;;;;4.78;3.60;;;;;;;;;;5091188;28;20236;-64
2023/01/07 01:43:30;;;;;;;3.40;3.10;;;;;;;;;;5091231;28;20284;-63
2023/01/07 01:46:00;;;;;;;3.50;3.20;;;;;;;;;;5087205;28;20200;-62
2023/01/07 01:48:28;;;;;;;3.92;3.55;;;;;;;;;;5072253;28;20220;-63
2023/01/07 01:50:58;;;;;;;4.60;3.72;;;;;;;;;;5075875;28;20204;-62
2023/01/07 01:53:29;;;;;;;3.58;3.25;;;;;;;;;;5075737;28;20203;-62
2023/01/07 01:55:59;;;;;;;4.00;3.70;;;;;;;;;;5076144;28;20545;-62
2023/01/07 01:58:29;;;;;;;4.10;3.70;;;;;;;;;;5075836;28;20574;-62
2023/01/07 02:01:00;;;;;;;3.88;3.55;;;;;;;;;;5074204;28;20190;-64
2023/01/07 02:03:30;;;;;;;3.88;3.40;;;;;;;;;;5090533;28;20210;-65
2023/01/07 02:05:59;;;;;;;3.80;3.47;;;;;;;;;;5074831;28;20217;-65
2023/01/07 02:08:28;;;;;;;5.25;3.70;;;;;;;;;;5091142;28;20585;-64
2023/01/07 02:11:19;;;;;;;3.65;3.35;;;;;;;;;;5094556;28;20638;-64
2023/01/07 02:14:03;;;;;;;3.80;3.55;;;;;;;;;;5095973;28;20645;-65
2023/01/07 02:16:34;;;;;;;4.40;4.00;;;;;;;;;;5084035;28;20214;-65
2023/01/07 02:19:11;;;;;;;3.75;3.45;;;;;;;;;;5074209;28;20196;-65
2023/01/07 02:21:47;;;;;;;5.75;3.97;;;;;;;;;;5079821;28;20188;-65
2023/01/07 02:24:28;;;;;;;3.33;3.05;;;;;;;;;;5085207;28;20543;-65
2023/01/07 02:27:23;;;;;;;4.15;3.75;;;;;;;;;;5078295;28;20203;-65
2023/01/07 02:30:18;;;;;;;4.97;4.10;;;;;;;;;;5074485;28;20188;-64
2023/01/07 02:32:54;;;;;;;3.42;3.13;;;;;;;;;;5074098;28;20196;-65
2023/01/07 02:35:29;;;;;;;3.70;3.40;;;;;;;;;;5077613;28;20192;-65
2023/01/07 02:38:02;;;;;;;4.50;4.00;;;;;;;;;;5083151;28;20508;-65
2023/01/07 02:40:35;;;;;;;3.90;3.58;;;;;;;;;;5094499;28;20206;-64
2023/01/07 02:43:08;;;;;;;3.33;3.13;;;;;;;;;;5094668;28;20690;-65
2023/01/07 02:45:39;;;;;;;3.97;3.67;;;;;;;;;;5093154;28;20187;-64
2023/01/07 02:48:10;;;;;;;4.30;3.95;;;;;;;;;;5095023;28;20211;-65
2023/01/07 02:50:38;;;;;;;6.70;3.85;;;;;;;;;;5094697;28;20198;-64
2023/01/07 02:53:08;;;;;;;4.15;3.85;;;;;;;;;;5076909;28;20204;-64
2023/01/07 02:55:40;;;;;;;4.13;3.85;;;;;;;;;;5087110;28;20569;-64
2023/01/07 02:58:16;;;;;;;3.83;3.53;;;;;;;;;;5094353;28;20193;-65
2023/01/07 03:00:52;;;;;;;3.83;3.53;;;;;;;;;;5092285;28;20199;-66
2023/01/07 03:03:27;;;;;;;4.47;3.83;;;;;;;;;;5093503;28;20608;-65
2023/01/07 03:06:02;;;;;;;6.28;4.30;;;;;;;;;;5093083;28;20509;-64
2023/01/07 03:08:36;;;;;;;4.25;3.85;;;;;;;;;;5078409;28;20207;-64
2023/01/07 03:11:05;;;;;;;4.35;3.90;;;;;;;;;;5060746;28;20577;-64
2023/01/07 03:13:37;;;;;;;5.57;3.92;;;;;;;;;;5074920;28;20208;-65
2023/01/07 03:16:08;;;;;;;3.50;3.30;;;;;;;;;;5093144;28;20200;-65
2023/01/07 03:18:39;;;;;;;4.20;3.72;;;;;;;;;;5083326;28;20642;-65
2023/01/07 03:21:09;;;;;;;4.10;3.80;;;;;;;;;;5094664;28;20539;-65
2023/01/07 03:23:40;;;;;;;4.25;3.88;;;;;;;;;;5078975;28;20230;-65
2023/01/07 03:26:10;;;;;;;4.07;3.78;;;;;;;;;;5073314;28;20194;-65
2023/01/07 03:28:40;;;;;;;4.15;3.40;;;;;;;;;;5072511;28;20693;-65
2023/01/07 03:31:12;;;;;;;6.53;4.03;;;;;;;;;;5072539;28;20719;-65
2023/01/07 03:33:44;;;;;;;4.20;3.83;;;;;;;;;;5072893;28;20635;-64
2023/01/07 03:36:15;;;;;;;4.53;3.78;;;;;;;;;;5084063;28;20210;-64
2023/01/07 03:38:45;;;;;;;3.97;3.67;;;;;;;;;;5090913;28;20188;-65
2023/01/07 03:42:38;;;;;;;6.05;3.47;;;;;;;;;;5093848;28;20617;-65
2023/01/07 03:44:01;;;;;;;4.10;3.75;;;;;;;;;;5092784;28;20199;-64
2023/01/07 03:46:30;;;;;;;3.88;3.30;;;;;;;;;;5091597;28;20566;-64
2023/01/07 03:48:59;;;;;;;3.95;3.65;;;;;;;;;;5093157;28;20219;-64
2023/01/07 03:51:28;;;;;;;4.35;4.05;;;;;;;;;;5091758;28;20197;-64
2023/01/07 03:53:57;;;;;;;4.00;3.70;;;;;;;;;;5092935;28;20200;-63
2023/01/07 03:56:25;;;;;;;6.80;4.38;;;;;;;;;;5091515;28;20203;-63
2023/01/07 03:58:53;;;;;;;7.25;5.45;;;;;;;;;;5093926;28;20340;-63
2023/01/07 04:01:22;;;;;;;4.60;4.13;;;;;;;;;;5093297;28;20203;-63
2023/01/07 04:03:50;;;;;;;3.33;3.10;;;;;;;;;;5090607;28;20207;-63
2023/01/07 04:06:19;;;;;;;7.57;4.43;;;;;;;;;;5092489;28;20210;-64
2023/01/07 04:08:49;;;;;;;4.60;4.20;;;;;;;;;;5074918;28;20586;-63
2023/01/07 04:11:17;;;;;;;4.82;4.43;;;;;;;;;;5078567;28;20208;-64
2023/01/07 04:13:45;;;;;;;4.85;4.30;;;;;;;;;;5078836;28;20199;-64
2023/01/07 04:16:13;;;;;;;4.60;4.20;;;;;;;;;;5093099;28;20609;-64
2023/01/07 04:18:42;;;;;;;8.88;4.32;;;;;;;;;;5092636;28;20241;-64
2023/01/07 04:21:11;;;;;;;5.38;4.70;;;;;;;;;;5080732;28;20226;-64
2023/01/07 04:23:41;;;;;;;4.60;4.20;;;;;;;;;;5071803;28;20578;-64
2023/01/07 04:26:10;;;;;;;4.47;4.07;;;;;;;;;;5088563;28;20192;-65
2023/01/07 04:28:40;;;;;;;4.70;4.35;;;;;;;;;;5071447;28;20208;-64
2023/01/07 04:31:09;;;;;;;4.40;4.00;;;;;;;;;;5090387;28;20210;-64
2023/01/07 04:33:38;;;;;;;4.22;3.92;;;;;;;;;;5084404;28;20229;-64
2023/01/07 04:36:06;;;;;;;5.03;3.83;;;;;;;;;;5087613;28;20209;-64
2023/01/07 04:38:35;;;;;;;4.30;4.00;;;;;;;;;;5089903;28;20567;-63
2023/01/07 04:41:04;;;;;;;3.95;3.55;;;;;;;;;;5072905;28;20210;-63
2023/01/07 04:43:32;;;;;;;3.75;3.50;;;;;;;;;;5071895;28;20642;-63
2023/01/07 04:46:01;;;;;;;4.78;4.38;;;;;;;;;;5071685;28;20551;-63
2023/01/07 04:48:29;;;;;;;5.75;4.80;;;;;;;;;;5072167;28;20199;-63
2023/01/07 04:50:58;;;;;;;4.85;4.45;;;;;;;;;;5074965;28;20554;-65
2023/01/07 04:53:26;;;;;;;5.05;4.55;;;;;;;;;;5091196;28;20206;-64
2023/01/07 04:55:55;;;;;;;5.28;4.18;;;;;;;;;;5093001;28;20225;-64
2023/01/07 04:58:25;;;;;;;9.63;4.50;;;;;;;;;;5090937;28;20227;-64
2023/01/07 05:00:56;;;;;;;5.00;4.65;;;;;;;;;;5092491;28;20188;-65
2023/01/07 05:03:25;;;;;;;5.55;4.50;;;;;;;;;;5089690;28;20213;-64
2023/01/07 05:05:53;;;;;;;4.07;3.78;;;;;;;;;;5091387;28;20210;-65
2023/01/07 05:08:22;;;;;;;6.15;4.43;;;;;;;;;;5091426;28;20199;-65
2023/01/07 05:10:51;;;;;;;4.50;4.10;;;;;;;;;;5092818;28;20210;-65
2023/01/07 05:13:21;;;;;;;4.05;3.75;;;;;;;;;;5092643;28;20205;-64
2023/01/07 05:15:50;;;;;;;4.32;3.92;;;;;;;;;;5093091;28;20207;-64
2023/01/07 05:18:21;;;;;;;4.57;3.75;;;;;;;;;;5091505;28;20188;-65
2023/01/07 05:20:50;;;;;;;4.00;3.70;;;;;;;;;;5091664;28;20203;-64
2023/01/07 05:23:19;;;;;;;4.80;4.20;;;;;;;;;;5091301;28;20227;-64
2023/01/07 05:25:49;;;;;;;6.18;4.78;;;;;;;;;;5074135;28;20280;-64
2023/01/07 05:28:18;;;;;;;5.93;4.13;;;;;;;;;;5080975;28;20202;-64
2023/01/07 05:30:47;;;;;;;4.80;4.20;;;;;;;;;;5072280;28;20723;-62
2023/01/07 05:33:16;;;;;;;5.05;4.55;;;;;;;;;;5072212;28;20309;-64
2023/01/07 05:35:48;;;;;;;5.90;5.30;;;;;;;;;;5071113;28;20204;-63
2023/01/07 05:38:17;;;;;;;6.63;6.03;;;;;;;;;;5071891;28;20213;-64
2023/01/07 05:40:47;;;;;;;5.05;4.65;;;;;;;;;;5083988;28;20210;-65
2023/01/07 05:43:16;;;;;;;4.63;3.97;;;;;;;;;;5071008;28;20211;-65
2023/01/07 05:45:45;;;;;;;6.10;4.10;;;;;;;;;;5079048;28;20570;-65
2023/01/07 05:48:13;;;;;;;4.50;4.10;;;;;;;;;;5091312;28;20213;-65
2023/01/07 05:50:43;;;;;;;6.07;4.75;;;;;;;;;;5091464;28;20223;-65
2023/01/07 05:53:11;;;;;;;4.68;4.30;;;;;;;;;;5092332;28;20218;-65
2023/01/07 05:55:39;;;;;;;4.53;4.20;;;;;;;;;;5091808;28;20210;-64
2023/01/07 05:58:08;;;;;;;5.53;4.60;;;;;;;;;;5083058;28;20200;-65
2023/01/07 06:00:36;;;;;;;4.55;4.10;;;;;;;;;;5071832;28;20188;-65
2023/01/07 06:03:05;;;;;;;6.72;3.83;;;;;;;;;;5070733;28;20211;-65
2023/01/07 06:05:33;;;;;;;4.28;3.88;;;;;;;;;;5071780;28;20298;-64
2023/01/07 06:08:03;;;;;;;4.30;4.00;;;;;;;;;;5072044;28;20558;-64
2023/01/07 06:10:31;;;;;;;4.85;4.35;;;;;;;;;;5071745;28;20228;-65
2023/01/07 06:13:00;;;;;;;4.32;3.92;;;;;;;;;;5071548;28;20704;-64
2023/01/07 06:15:29;;;;;;;6.80;4.45;;;;;;;;;;5071775;28;20712;-65
2023/01/07 06:17:57;;;;;;;4.03;3.63;;;;;;;;;;5071325;28;20214;-64
2023/01/07 06:20:26;;;;;;;4.70;4.30;;;;;;;;;;5070830;28;20210;-64
2023/01/07 06:22:54;;;;;;;3.88;3.58;;;;;;;;;;5071871;28;20224;-64
2023/01/07 06:25:23;;;;;;;3.63;3.33;;;;;;;;;;5071661;28;20901;-65
2023/01/07 06:27:52;;;;;;;4.47;4.13;;;;;;;;;;5070091;28;20666;-65
2023/01/07 06:30:20;;;;;;;6.15;4.45;;;;;;;;;;5070940;28;20224;-65
2023/01/07 06:32:48;;;;;;;5.18;4.78;;;;;;;;;;5070820;28;20662;-65
2023/01/07 06:35:16;;;;;;;4.65;3.80;;;;;;;;;;5086723;28;20203;-65
2023/01/07 06:37:45;;;;;;;4.45;4.05;;;;;;;;;;5094401;28;20211;-64
2023/01/07 06:40:13;;;;;;;4.80;4.40;;;;;;;;;;5095434;28;20208;-64
2023/01/07 06:42:42;;;;;;;4.32;3.92;;;;;;;;;;5080977;28;20206;-64
2023/01/07 06:45:11;;;;;;;4.15;3.80;;;;;;;;;;5084284;28;20549;-65
2023/01/07 06:47:39;;;;;;;4.60;4.20;;;;;;;;;;5079789;28;20202;-65
2023/01/07 06:50:08;;;;;;;3.70;3.38;;;;;;;;;;5090379;28;20212;-65
2023/01/07 06:52:36;;;;;;;4.22;3.92;;;;;;;;;;5088092;28;20200;-65
2023/01/07 06:55:05;;;;;;;4.25;4.00;;;;;;;;;;5095530;28;20225;-65
2023/01/07 06:57:33;;;;;;;4.65;4.25;;;;;;;;;;5074614;28;20202;-65
2023/01/07 07:00:03;;;;;;;4.72;4.32;;;;;;;;;;5076222;28;20231;-64
2023/01/07 07:02:31;;;;;;;6.38;4.00;;;;;;;;;;5080416;28;20239;-65
2023/01/07 07:04:59;;;;;;;6.28;4.03;;;;;;;;;;5079562;28;20670;-65
2023/01/07 07:07:28;;;;;;;4.05;3.50;;;;;;;;;;5084410;28;20215;-65
2023/01/07 07:09:56;;;;;;;4.90;3.90;;;;;;;;;;5083441;28;20228;-65
2023/01/07 07:12:24;;;;;;;3.97;3.53;;;;;;;;;;5083645;28;20889;-65
2023/01/07 07:14:52;;;;;;;5.75;5.03;;;;;;;;;;5083934;28;20224;-65
2023/01/07 07:17:22;;;;;;;6.25;5.80;;;;;;;;;;5082370;28;20218;-65
2023/01/07 07:19:50;;;;;;;12.63;11.35;;;;;;;;;;5082532;28;20198;-65
2023/01/07 07:22:18;;;;;;;10.20;8.85;;;;;;;;;;5083310;28;20226;-65
2023/01/07 07:24:46;;;;;;;5.63;4.95;;;;;;;;;;5085629;28;20196;-65
2023/01/07 07:27:15;;;;;;;5.05;4.63;;;;;;;;;;5081660;28;20208;-65
2023/01/07 07:29:43;;;;;;;6.30;4.10;;;;;;;;;;5082583;28;20506;-65
2023/01/07 07:32:11;;;;;;;4.13;3.67;;;;;;;;;;5084175;28;20207;-65
2023/01/07 07:34:40;;;;;;;3.40;3.20;;;;;;;;;;5082610;28;20200;-65
2023/01/07 07:37:08;;;;;;;4.88;4.32;;;;;;;;;;5082540;28;20198;-65
2023/01/07 07:39:37;;;;;;;4.80;4.40;;;;;;;;;;5083941;28;20207;-65
2023/01/07 07:42:06;;;;;;;6.78;5.20;;;;;;;;;;5084038;28;20199;-64
2023/01/07 07:44:34;;;;;;;3.30;3.10;;;;;;;;;;5081903;28;20200;-64
2023/01/07 07:47:02;;;;;;;5.85;3.67;;;;;;;;;;5082529;28;20248;-65
2023/01/07 07:49:31;;;;;;;3.90;3.47;;;;;;;;;;5084854;28;20210;-64
2023/01/07 07:52:00;;;;;;;4.70;3.50;;;;;;;;;;5082585;28;20208;-64
2023/01/07 07:54:28;;;;;;;4.85;2.92;;;;;;;;;;5082760;28;20204;-64
2023/01/07 07:56:57;;;;;;;2.92;2.72;;;;;;;;;;5083545;28;20578;-64
2023/01/07 07:59:25;;;;;;;4.80;4.28;;;;;;;;;;5093546;28;20241;-64
2023/01/07 08:01:53;;;;;;;3.45;3.22;;;;;;;;;;5081285;28;20196;-64
2023/01/07 08:04:22;;;;;;;3.05;2.85;;;;;;;;;;5088057;28;20277;-64
2023/01/07 08:06:50;;;;;;;2.72;2.15;;;;;;;;;;5075517;28;20206;-64
2023/01/07 08:09:19;;;;;;;3.00;2.50;;;;;;;;;;5090929;28;20200;-64
2023/01/07 08:11:48;;;;;;;6.25;3.25;;;;;;;;;;5081561;28;20576;-64
2023/01/07 08:14:16;;;;;;;14.65;10.18;;;;;;;;;;5090592;28;20206;-64
2023/01/07 08:16:44;;;;;;;27.38;16.05;;;;;;;;;;5091693;28;20661;-65
2023/01/07 08:19:13;;;;;;;7.15;4.82;;;;;;;;;;5091630;28;20203;-65
2023/01/07 08:21:42;;;;;;;4.43;2.92;;;;;;;;;;5077648;28;20206;-64
2023/01/07 08:24:10;;;;;;;3.60;3.30;;;;;;;;;;5077446;28;20223;-64
2023/01/07 08:26:39;;;;;;;5.10;3.90;;;;;;;;;;5080779;28;20207;-64
2023/01/07 08:29:08;;;;;;;5.50;5.00;;;;;;;;;;5081934;28;20196;-64
2023/01/07 08:31:36;;;;;;;3.85;3.22;;;;;;;;;;5073832;28;20410;-65
2023/01/07 08:34:05;;;;;;;3.00;2.80;;;;;;;;;;5083289;28;20203;-64
2023/01/07 08:36:34;;;;;;;2.67;2.47;;;;;;;;;;5080441;28;20249;-64
2023/01/07 08:39:02;;;;;;;2.30;2.20;;;;;;;;;;5083354;28;20200;-64
2023/01/07 08:41:30;;;;;;;2.67;2.40;;;;;;;;;;5082306;28;20266;-65
2023/01/07 08:44:00;;;;;;;2.47;2.28;;;;;;;;;;5075374;28;20257;-65
2023/01/07 08:46:28;;;;;;;2.45;2.25;;;;;;;;;;5072782;28;20803;-65
2023/01/07 08:48:56;;;;;;;2.17;2.05;;;;;;;;;;5070484;28;20212;-64
2023/01/07 08:51:24;;;;;;;2.10;1.80;;;;;;;;;;5071382;28;20585;-64
2023/01/07 08:53:52;;;;;;;1.90;1.70;;;;;;;;;;5085773;28;20263;-64
2023/01/07 08:56:21;;;;;;;2.20;1.80;;;;;;;;;;5080649;28;20203;-64
2023/01/07 08:58:49;;;;;;;2.50;1.98;;;;;;;;;;5088479;28;20222;-64
2023/01/07 09:01:19;;;;;;;2.58;1.70;;;;;;;;;;5083066;28;20568;-64
2023/01/07 09:03:47;;;;;;;4.13;2.55;;;;;;;;;;5076376;28;20668;-64
2023/01/07 09:06:15;;;;;;;1.63;1.52;;;;;;;;;;5077659;28;20208;-65
2023/01/07 09:08:43;;;;;;;1.65;1.55;;;;;;;;;;5082523;28;20661;-64
2023/01/07 09:11:12;;;;;;;1.50;1.25;;;;;;;;;;5092556;28;20499;-65
2023/01/07 09:13:40;;;;;;;1.90;1.75;;;;;;;;;;5092237;28;20208;-65
2023/01/07 09:16:08;;;;;;;2.50;2.30;;;;;;;;;;5092277;28;20207;-65
2023/01/07 09:18:38;;;;;;;2.97;2.50;;;;;;;;;;5092677;28;20256;-65
2023/01/07 09:21:06;;;;;;;2.42;2.22;;;;;;;;;;5093106;28;20195;-64
2023/01/07 09:23:35;;;;;;;2.92;2.28;;;;;;;;;;5092724;28;20234;-65
2023/01/07 09:26:03;;;;;;;5.50;1.98;;;;;;;;;;5091460;28;20225;-65
2023/01/07 09:28:31;;;;;;;2.10;1.83;;;;;;;;;;5092494;28;20207;-64
2023/01/07 09:31:00;;;;;;;2.45;2.25;;;;;;;;;;5092664;28;20267;-64
2023/01/07 09:33:28;;;;;;;2.53;2.33;;;;;;;;;;5092621;28;20209;-64
2023/01/07 09:35:58;;;;;;;2.38;2.17;;;;;;;;;;5092582;28;20207;-64
2023/01/07 09:38:26;;;;;;;1.65;1.55;;;;;;;;;;5091205;28;20709;-64
2023/01/07 09:40:54;;;;;;;2.15;1.98;;;;;;;;;;5087746;28;20657;-64
2023/01/07 09:43:27;;;;;;;2.65;2.45;;;;;;;;;;5092413;28;20195;-64
2023/01/07 09:45:57;;;;;;;2.60;2.40;;;;;;;;;;5092525;28;20190;-65
2023/01/07 09:48:27;;;;;;;2.45;2.13;;;;;;;;;;5092173;28;20688;-65
2023/01/07 09:50:57;;;;;;;5.32;2.10;;;;;;;;;;5091126;28;20203;-65
2023/01/07 09:53:28;;;;;;;4.07;2.40;;;;;;;;;;5094454;28;20210;-64
2023/01/07 09:55:56;;;;;;;3.97;2.75;;;;;;;;;;5092791;28;20183;-65
2023/01/07 09:58:24;;;;;;;2.75;2.50;;;;;;;;;;5092699;28;20231;-65
2023/01/07 10:00:58;;;;;;;2.75;2.25;;;;;;;;;;5091945;28;20191;-64
2023/01/07 10:03:37;;;;;;;2.30;2.10;;;;;;;;;;5090355;28;20196;-65
2023/01/07 10:06:07;;;;;;;3.15;2.60;;;;;;;;;;5091682;28;20191;-64
2023/01/07 10:08:43;;;;;;;2.92;2.65;;;;;;;;;;5091828;28;20217;-64
2023/01/07 10:11:16;;;;;;;3.40;2.67;;;;;;;;;;5081764;28;20229;-64
2023/01/07 10:13:50;;;;;;;2.22;2.10;;;;;;;;;;5095983;28;20191;-65
2023/01/07 10:16:20;;;;;;;2.72;2.53;;;;;;;;;;5095113;28;20198;-64
2023/01/07 10:18:53;;;;;;;2.13;1.85;;;;;;;;;;5096083;28;20626;-64
2023/01/07 10:21:23;;;;;;;2.70;2.28;;;;;;;;;;5095860;28;20190;-64
2023/01/07 10:23:56;;;;;;;2.20;2.00;;;;;;;;;;5095500;28;20227;-65
2023/01/07 10:26:29;;;;;;;5.53;2.25;;;;;;;;;;5096312;28;20191;-64
2023/01/07 10:29:00;;;;;;;3.03;2.83;;;;;;;;;;5095409;28;20564;-63
2023/01/07 10:31:32;;;;;;;2.15;1.95;;;;;;;;;;5095713;28;20275;-64
2023/01/07 10:34:00;;;;;;;3.35;2.15;;;;;;;;;;5096356;28;20203;-64
2023/01/07 10:36:29;;;;;;;5.43;4.20;;;;;;;;;;5095655;28;20202;-64
2023/01/07 10:39:03;;;;;;;12.02;5.25;;;;;;;;;;5084094;28;20212;-64
2023/01/07 10:41:37;;;;;;;13.20;6.88;;;;;;;;;;5075304;28;20713;-64
2023/01/07 10:44:13;;;;;;;5.35;2.95;;;;;;;;;;5075355;28;20187;-65
2023/01/07 10:46:49;;;;;;;2.75;2.10;;;;;;;;;;5076002;28;20188;-65
2023/01/07 10:49:26;;;;;;;11.95;6.80;;;;;;;;;;5075042;28;20561;-65
2023/01/07 10:52:04;;;;;;;3.33;3.13;;;;;;;;;;5075255;28;20212;-65
2023/01/07 10:54:40;;;;;;;2.03;1.92;;;;;;;;;;5074603;28;20194;-64
2023/01/07 10:57:11;;;;;;;3.45;2.25;;;;;;;;;;5075160;28;20192;-64
2023/01/07 10:59:39;;;;;;;1.90;1.80;;;;;;;;;;5074869;28;20232;-64
2023/01/07 11:02:15;;;;;;;5.20;2.17;;;;;;;;;;5086116;28;20201;-64
2023/01/07 11:04:43;;;;;;;2.65;1.58;;;;;;;;;;5094435;28;20191;-65
2023/01/07 11:07:14;;;;;;;2.10;1.90;;;;;;;;;;5095761;28;20207;-65
2023/01/07 11:09:46;;;;;;;6.90;2.83;;;;;;;;;;5095390;28;20187;-64
2023/01/07 11:12:22;;;;;;;1.70;1.60;;;;;;;;;;5094980;28;20207;-64
2023/01/07 11:14:51;;;;;;;1.67;1.58;;;;;;;;;;5095600;28;20201;-64
2023/01/07 11:17:25;;;;;;;3.20;2.22;;;;;;;;;;5094992;28;20654;-64
2023/01/07 11:19:53;;;;;;;2.35;1.92;;;;;;;;;;5095060;28;20187;-64
2023/01/07 11:22:32;;;;;;;5.15;2.55;;;;;;;;;;5094466;28;20219;-65
2023/01/07 11:25:02;;;;;;;3.78;3.47;;;;;;;;;;5095182;28;20224;-64
2023/01/07 11:27:32;;;;;;;8.20;2.78;;;;;;;;;;5093932;28;20573;-65
2023/01/07 11:30:02;;;;;;;3.08;2.40;;;;;;;;;;5093340;28;20203;-65
2023/01/07 11:32:31;;;;;;;2.60;2.40;;;;;;;;;;5076055;28;20218;-64
2023/01/07 11:35:01;;;;;;;2.20;2.00;;;;;;;;;;5090220;28;20211;-65
2023/01/07 11:37:34;;;;;;;5.00;2.65;;;;;;;;;;5080754;28;20662;-64
2023/01/07 11:40:14;;;;;;;1.85;1.75;;;;;;;;;;5083518;28;20643;-64
2023/01/07 11:42:47;;;;;;;2.60;2.42;;;;;;;;;;5083272;28;20184;-65
2023/01/07 11:45:17;;;;;;;4.00;3.60;;;;;;;;;;5089925;28;20642;-65
2023/01/07 11:47:47;;;;;;;2.80;2.60;;;;;;;;;;5087684;28;20209;-65
2023/01/07 11:50:21;;;;;;;7.00;3.22;;;;;;;;;;5087041;28;20214;-65
2023/01/07 11:52:56;;;;;;;3.22;2.92;;;;;;;;;;5089677;28;20211;-65
2023/01/07 11:55:26;;;;;;;2.42;2.33;;;;;;;;;;5089424;28;20203;-65
2023/01/07 11:57:55;;;;;;;2.80;2.53;;;;;;;;;;5094840;28;20203;-64
2023/01/07 12:00:23;;;;;;;2.58;2.38;;;;;;;;;;5083168;28;20261;-63
2023/01/07 12:03:03;;;;;;;2.60;2.40;;;;;;;;;;5072673;28;20206;-64
2023/01/07 12:05:31;;;;;;;2.50;2.30;;;;;;;;;;5073815;28;21067;-64
2023/01/07 12:08:00;;;;;;;6.32;2.90;;;;;;;;;;5073862;28;20597;-64
2023/01/07 12:10:31;;;;;;;4.30;2.60;;;;;;;;;;5073622;28;20200;-64
2023/01/07 12:13:00;;;;;;;2.53;2.30;;;;;;;;;;5073910;28;20619;-64
2023/01/07 12:15:29;;;;;;;2.37;2.23;;;;;;;;;;5078854;28;20207;-64
2023/01/07 12:18:03;;;;;;;2.20;1.97;;;;;;;;;;5082590;28;20620;-64
2023/01/07 12:20:39;;;;;;;3.00;2.35;;;;;;;;;;5074695;28;20600;-65
2023/01/07 12:23:16;;;;;;;3.00;2.80;;;;;;;;;;5079813;28;20219;-65
2023/01/07 12:25:51;;;;;;;1.77;1.67;;;;;;;;;;5083337;28;21197;-65
2023/01/07 12:28:21;;;;;;;1.70;1.60;;;;;;;;;;5073885;28;20600;-64
2023/01/07 12:31:18;;;;;;;2.90;2.50;;;;;;;;;;5088667;28;20633;-64
2023/01/07 12:34:01;;;;;;;1.87;1.77;;;;;;;;;;5079919;28;20620;-63
2023/01/07 12:36:34;;;;;;;1.90;1.80;;;;;;;;;;5071510;28;20588;-65
2023/01/07 12:39:03;;;;;;;2.27;2.07;;;;;;;;;;5082672;28;20661;-65
2023/01/07 12:41:35;;;;;;;3.00;2.10;;;;;;;;;;5088347;28;21319;-64
2023/01/07 12:44:05;;;;;;;2.30;2.10;;;;;;;;;;5073312;28;20586;-65
2023/01/07 12:46:37;;;;;;;2.70;2.50;;;;;;;;;;5073978;28;20617;-65
2023/01/07 12:49:07;;;;;;;2.00;1.90;;;;;;;;;;5073511;28;20591;-65
2023/01/07 12:51:37;;;;;;;2.10;1.90;;;;;;;;;;5078037;28;20621;-65
2023/01/07 12:54:11;;;;;;;2.50;2.30;;;;;;;;;;5092259;28;20663;-64
2023/01/07 12:56:43;;;;;;;2.60;1.93;;;;;;;;;;5089058;28;20609;-64
2023/01/07 12:59:16;;;;;;;2.30;2.10;;;;;;;;;;5091625;28;21054;-64
2023/01/07 13:01:47;;;;;;;2.40;2.30;;;;;;;;;;5085749;28;20593;-65
2023/01/07 13:04:21;;;;;;;2.63;2.50;;;;;;;;;;5071445;28;20705;-65
2023/01/07 13:06:52;;;;;;;2.70;2.60;;;;;;;;;;5076189;28;20617;-64
2023/01/07 13:09:25;;;;;;;3.37;3.27;;;;;;;;;;5092762;28;20610;-66
2023/01/07 13:14:44;;;;;;;3.47;3.10;;;;;;;;;;5071920;28;20619;-64
2023/01/07 13:17:15;;;;;;;4.10;3.90;;;;;;;;;;5078039;28;20635;-65
2023/01/07 13:19:44;;;;;;;3.40;3.30;;;;;;;;;;5090806;28;20609;-64
2023/01/07 13:22:15;;;;;;;3.70;3.60;;;;;;;;;;5075107;28;20702;-65
2023/01/07 13:24:50;;;;;;;3.97;3.77;;;;;;;;;;5076939;28;21001;-63
2023/01/07 13:27:24;;;;;;;4.10;3.90;;;;;;;;;;5073264;28;20628;-64
2023/01/07 13:29:59;;;;;;;3.67;3.50;;;;;;;;;;5073513;28;20987;-65
2023/01/07 13:32:45;;;;;;;6.03;3.50;;;;;;;;;;5072888;28;20612;-65
2023/01/07 13:35:32;;;;;;;3.83;3.63;;;;;;;;;;5072356;28;20573;-65
2023/01/07 13:38:10;;;;;;;4.10;3.90;;;;;;;;;;5078937;28;20616;-65
2023/01/07 13:40:46;;;;;;;3.33;3.13;;;;;;;;;;5073693;28;20707;-65
2023/01/07 13:43:22;;;;;;;3.20;3.10;;;;;;;;;;5072463;28;20578;-65
2023/01/07 13:45:52;;;;;;;3.50;3.20;;;;;;;;;;5089032;28;21231;-64
2023/01/07 13:48:22;;;;;;;3.57;3.27;;;;;;;;;;5090904;28;20613;-64
2023/01/07 13:50:57;;;;;;;2.90;2.80;;;;;;;;;;5079716;28;20596;-65
2023/01/07 13:53:32;;;;;;;3.20;3.10;;;;;;;;;;5097423;28;20637;-65
2023/01/07 13:56:24;;;;;;;3.27;3.17;;;;;;;;;;5095592;28;20579;-65
2023/01/07 13:58:55;;;;;;;3.10;2.90;;;;;;;;;;5077190;28;20635;-65
2023/01/07 14:01:23;;;;;;;3.43;3.23;;;;;;;;;;5096655;28;20615;-65
2023/01/07 14:03:52;;;;;;;3.40;3.20;;;;;;;;;;5079453;28;20588;-66
2023/01/07 14:06:41;;;;;;;3.53;3.23;;;;;;;;;;5095601;28;20595;-65
2023/01/07 14:09:19;;;;;;;3.50;3.30;;;;;;;;;;5078991;28;20585;-65
2023/01/07 14:11:57;;;;;;;3.50;3.30;;;;;;;;;;5076308;28;20653;-64
2023/01/07 14:14:32;;;;;;;3.30;3.10;;;;;;;;;;5079621;28;20645;-65
2023/01/07 14:17:02;;;;;;;3.13;2.93;;;;;;;;;;5096194;28;20595;-65
2023/01/07 14:19:33;;;;;;;11.10;3.10;;;;;;;;;;5091789;28;20647;-65
2023/01/07 14:22:05;;;;;;;3.30;3.00;;;;;;;;;;5079919;28;20656;-65
2023/01/07 14:24:54;;;;;;;3.43;3.23;;;;;;;;;;5076808;28;20605;-64
2023/01/07 14:27:47;;;;;;;4.80;3.30;;;;;;;;;;5092055;28;20583;-64
2023/01/07 14:30:20;;;;;;;4.30;3.63;;;;;;;;;;5084301;28;20576;-64
2023/01/07 14:32:56;;;;;;;3.17;3.07;;;;;;;;;;5094038;28;20595;-65
2023/01/07 14:35:27;;;;;;;3.87;3.67;;;;;;;;;;5077718;28;20615;-65
2023/01/07 14:37:56;;;;;;;4.17;3.93;;;;;;;;;;5075309;28;20561;-64
2023/01/07 14:40:42;;;;;;;6.33;4.47;;;;;;;;;;5075701;28;20609;-65
2023/01/07 14:43:25;;;;;;;4.10;3.90;;;;;;;;;;5062026;28;20629;-64
2023/01/07 14:45:55;;;;;;;6.93;5.03;;;;;;;;;;5079101;28;20588;-64
2023/01/07 14:48:31;;;;;;;4.93;4.57;;;;;;;;;;5095301;28;20613;-65
2023/01/07 14:51:05;;;;;;;4.00;3.77;;;;;;;;;;5095471;28;21306;-65
2023/01/07 14:53:46;;;;;;;24.83;7.30;;;;;;;;;;5094810;28;20722;-65
2023/01/07 14:56:20;;;;;;;3.90;3.70;;;;;;;;;;5095211;28;20589;-65
2023/01/07 14:58:59;;;;;;;4.10;3.80;;;;;;;;;;5094139;28;20643;-65
2023/01/07 15:01:35;;;;;;;3.80;3.57;;;;;;;;;;5094492;28;20931;-64
2023/01/07 15:04:16;;;;;;;5.03;3.83;;;;;;;;;;5093332;28;20638;-66
2023/01/07 15:06:46;;;;;;;3.83;3.63;;;;;;;;;;5087916;28;20586;-66
2023/01/07 15:17:39;;;;;;;3.80;3.60;;;;;;;;;;5074348;28;20548;-66